Wetterdaten: Woche 20.07.15 - 26.07.15 (KW30)
Datum Zeit Temp. I. Temp. A. Feuchte I. Feuchte A. Luftdruck Regen Wind Richtung Taupunkt Windchill
20.07.2015 00:00 24,4 °C 15,6 °C 63 % 89 % 1011,2 hPa 0,0 l/m² 1,2 km/h (1 Bft) SO 13,7 °C 15,6 °C
20.07.2015 01:00 24,2 °C 14,9 °C 62 % 90 % 1011,7 hPa 0,0 l/m² 2,8 km/h (1 Bft) W-SW 13,3 °C 14,8 °C
20.07.2015 02:00 24,2 °C 13,9 °C 61 % 91 % 1011,9 hPa 0,0 l/m² 0,6 km/h (0 Bft) W-SW 12,4 °C 13,9 °C
20.07.2015 03:00 24,0 °C 13,3 °C 60 % 91 % 1012,2 hPa 0,0 l/m² 2,2 km/h (1 Bft) W-SW 11,9 °C 13,3 °C
20.07.2015 04:00 23,8 °C 13,2 °C 59 % 92 % 1012,4 hPa 0,0 l/m² 4,5 km/h (1 Bft) SO 11,9 °C 13,0 °C
20.07.2015 05:00 23,8 °C 13,2 °C 58 % 93 % 1012,5 hPa 0,0 l/m² 1,9 km/h (1 Bft) W 12,0 °C 13,2 °C
20.07.2015 06:00 23,7 °C 14,1 °C 57 % 93 % 1012,9 hPa 0,0 l/m² 3,5 km/h (1 Bft) SW 12,9 °C 14,0 °C
20.07.2015 07:00 23,3 °C 16,2 °C 58 % 92 % 1013,2 hPa 0,0 l/m² 2,7 km/h (1 Bft) W 14,9 °C 16,1 °C
20.07.2015 08:00 23,5 °C 18,6 °C 59 % 87 % 1013,3 hPa 0,0 l/m² 10,4 km/h (2 Bft) W-SW 16,3 °C 17,1 °C
20.07.2015 09:00 23,5 °C 20,2 °C 59 % 78 % 1013,6 hPa 0,0 l/m² 14,7 km/h (3 Bft) W-SW 16,2 °C 17,7 °C
20.07.2015 10:00 23,6 °C 21,7 °C 60 % 70 % 1013,6 hPa 0,5 l/m² 19,4 km/h (3 Bft) W-SW 15,9 °C 18,6 °C
20.07.2015 11:00 23,6 °C 23,3 °C 60 % 60 % 1013,6 hPa 0,0 l/m² 20,9 km/h (4 Bft) W-SW 15,2 °C 20,3 °C
20.07.2015 12:00 23,6 °C 24,2 °C 60 % 54 % 1013,5 hPa 0,0 l/m² 19,1 km/h (3 Bft) W 14,2 °C 21,8 °C
20.07.2015 13:00 23,6 °C 25,6 °C 60 % 50 % 1013,1 hPa 0,0 l/m² 18,2 km/h (3 Bft) W-SW 14,3 °C 23,7 °C
20.07.2015 14:00 23,6 °C 26,0 °C 60 % 49 % 1012,8 hPa 0,0 l/m² 15,4 km/h (3 Bft) W-SW 14,5 °C 24,6 °C
20.07.2015 15:00 23,7 °C 26,9 °C 60 % 51 % 1012,4 hPa 0,0 l/m² 13,2 km/h (3 Bft) S-SW 16,0 °C 25,9 °C
20.07.2015 16:00 23,7 °C 27,5 °C 60 % 53 % 1012,2 hPa 0,0 l/m² 17,5 km/h (3 Bft) S-SW 16,9 °C 26,2 °C
20.07.2015 17:00 23,8 °C 27,3 °C 60 % 54 % 1012,1 hPa 0,0 l/m² 19,4 km/h (3 Bft) SW 17,3 °C 25,7 °C
20.07.2015 18:00 23,8 °C 25,7 °C 60 % 60 % 1012,0 hPa 0,0 l/m² 12,8 km/h (3 Bft) SW 17,3 °C 24,6 °C
20.07.2015 19:00 23,9 °C 25,0 °C 61 % 63 % 1012,0 hPa 0,0 l/m² 12,3 km/h (2 Bft) W-SW 17,3 °C 23,7 °C
20.07.2015 20:00 24,1 °C 24,3 °C 62 % 66 % 1012,0 hPa 0,0 l/m² 5,7 km/h (2 Bft) SW 17,6 °C 24,2 °C
20.07.2015 21:00 24,5 °C 23,2 °C 65 % 70 % 1012,0 hPa 0,0 l/m² 1,9 km/h (1 Bft) S-SW 17,5 °C 23,2 °C
20.07.2015 22:00 24,8 °C 22,1 °C 64 % 78 % 1012,4 hPa 0,5 l/m² 2,7 km/h (1 Bft) S-SW 18,0 °C 22,1 °C
20.07.2015 23:00 24,6 °C 21,1 °C 64 % 83 % 1012,6 hPa 0,0 l/m² 0,3 km/h (0 Bft) W-SW 18,1 °C 21,1 °C
21.07.2015 00:00 24,3 °C 20,6 °C 64 % 85 % 1012,5 hPa 0,0 l/m² 0,1 km/h (0 Bft) W-SW 18,0 °C 20,6 °C
21.07.2015 01:00 24,2 °C 20,4 °C 65 % 87 % 1012,5 hPa 2,6 l/m² 0,8 km/h (0 Bft) W-SW 18,1 °C 20,4 °C
21.07.2015 02:00 24,1 °C 20,4 °C 65 % 89 % 1012,4 hPa 1,0 l/m² 4,6 km/h (1 Bft) S 18,5 °C 20,2 °C
21.07.2015 03:00 24,0 °C 20,3 °C 66 % 89 % 1012,2 hPa 0,0 l/m² 1,4 km/h (1 Bft) S 18,5 °C 20,3 °C
21.07.2015 04:00 24,0 °C 20,1 °C 66 % 91 % 1012,0 hPa 0,0 l/m² 8,6 km/h (2 Bft) S-SW 18,6 °C 19,2 °C
21.07.2015 05:00 23,9 °C 19,7 °C 66 % 91 % 1012,2 hPa 0,0 l/m² 6,6 km/h (2 Bft) SW 18,2 °C 19,2 °C
21.07.2015 06:00 23,9 °C 20,2 °C 67 % 91 % 1012,3 hPa 0,0 l/m² 2,5 km/h (1 Bft) S-SW 18,7 °C 20,1 °C
21.07.2015 07:00 23,8 °C 21,1 °C 67 % 90 % 1012,5 hPa 0,0 l/m² 1,4 km/h (1 Bft) S 19,5 °C 21,1 °C
21.07.2015 08:00 23,9 °C 22,5 °C 67 % 88 % 1012,6 hPa 0,0 l/m² 8,0 km/h (2 Bft) SW 20,5 °C 21,8 °C
21.07.2015 09:00 23,9 °C 24,1 °C 66 % 84 % 1012,5 hPa 0,0 l/m² 11,3 km/h (2 Bft) W-SW 21,1 °C 23,0 °C
21.07.2015 10:00 23,9 °C 25,7 °C 66 % 76 % 1012,4 hPa 0,0 l/m² 16,1 km/h (3 Bft) SW 21,0 °C 24,1 °C
21.07.2015 11:00 23,9 °C 27,3 °C 65 % 67 % 1012,3 hPa 0,0 l/m² 17,1 km/h (3 Bft) SW 20,6 °C 25,9 °C
21.07.2015 12:00 24,0 °C 28,1 °C 65 % 62 % 1012,3 hPa 0,0 l/m² 20,2 km/h (4 Bft) SW 20,1 °C 26,7 °C
21.07.2015 13:00 24,0 °C 28,8 °C 65 % 57 % 1012,2 hPa 0,0 l/m² 19,5 km/h (3 Bft) SW 19,5 °C 27,6 °C
21.07.2015 14:00 24,0 °C 29,0 °C 65 % 56 % 1012,2 hPa 0,0 l/m² 21,3 km/h (4 Bft) W-SW 19,1 °C 27,8 °C
21.07.2015 15:00 24,0 °C 29,2 °C 65 % 57 % 1012,0 hPa 0,0 l/m² 18,2 km/h (3 Bft) W 19,7 °C 28,4 °C
21.07.2015 16:00 24,1 °C 29,9 °C 65 % 52 % 1012,1 hPa 0,0 l/m² 24,1 km/h (4 Bft) W-SW 19,0 °C 28,8 °C
21.07.2015 17:00 24,2 °C 29,8 °C 65 % 51 % 1012,2 hPa 0,0 l/m² 21,3 km/h (4 Bft) W 18,7 °C 28,9 °C
21.07.2015 18:00 24,2 °C 29,8 °C 65 % 46 % 1012,1 hPa 0,0 l/m² 20,4 km/h (4 Bft) W-SW 17,1 °C 28,9 °C
21.07.2015 19:00 24,5 °C 29,1 °C 65 % 49 % 1012,0 hPa 0,0 l/m² 12,2 km/h (2 Bft) W 17,3 °C 28,6 °C
21.07.2015 20:00 24,5 °C 27,2 °C 65 % 55 % 1012,2 hPa 0,0 l/m² 3,9 km/h (1 Bft) W 17,4 °C 27,1 °C
21.07.2015 21:00 24,7 °C 24,8 °C 65 % 62 % 1012,7 hPa 0,0 l/m² 2,2 km/h (1 Bft) N 17,0 °C 24,8 °C
21.07.2015 22:00 24,9 °C 22,7 °C 65 % 70 % 1013,2 hPa 0,0 l/m² 0,6 km/h (0 Bft) N-NO 16,9 °C 22,7 °C
21.07.2015 23:00 24,8 °C 21,9 °C 65 % 75 % 1013,4 hPa 0,0 l/m² 0,0 km/h (0 Bft) N-NO 17,3 °C 21,9 °C
22.07.2015 00:00 24,6 °C 21,0 °C 65 % 78 % 1013,6 hPa 0,0 l/m² 0,0 km/h (0 Bft) N-NO 17,0 °C 21,0 °C
22.07.2015 01:00 24,6 °C 20,0 °C 65 % 81 % 1013,6 hPa 0,0 l/m² 0,2 km/h (0 Bft) N-NO 16,6 °C 20,0 °C
22.07.2015 02:00 24,5 °C 19,3 °C 65 % 83 % 1013,5 hPa 0,0 l/m² 0,6 km/h (0 Bft) N-NO 16,4 °C 19,3 °C
22.07.2015 03:00 24,5 °C 18,5 °C 65 % 83 % 1013,4 hPa 0,0 l/m² 0,0 km/h (0 Bft) N-NO 15,6 °C 18,5 °C
22.07.2015 04:00 24,4 °C 18,1 °C 65 % 86 % 1013,4 hPa 0,0 l/m² 0,0 km/h (0 Bft) N-NO 15,6 °C 18,1 °C
22.07.2015 05:00 24,4 °C 18,0 °C 65 % 87 % 1013,4 hPa 0,0 l/m² 0,3 km/h (0 Bft) N-NO 15,8 °C 18,0 °C
22.07.2015 06:00 24,3 °C 18,8 °C 65 % 88 % 1013,6 hPa 0,0 l/m² 0,5 km/h (0 Bft) N-NO 16,8 °C 18,8 °C
22.07.2015 07:00 24,1 °C 20,2 °C 65 % 87 % 1013,8 hPa 0,0 l/m² 0,1 km/h (0 Bft) N-NO 18,0 °C 20,2 °C
22.07.2015 08:00 24,2 °C 22,6 °C 65 % 84 % 1013,8 hPa 0,0 l/m² 0,2 km/h (0 Bft) N-NO 19,7 °C 22,6 °C
22.07.2015 09:00 24,2 °C 26,1 °C 65 % 69 % 1013,5 hPa 0,0 l/m² 2,1 km/h (1 Bft) O-SO 20,0 °C 26,1 °C
22.07.2015 10:00 24,2 °C 27,9 °C 65 % 59 % 1013,2 hPa 0,0 l/m² 3,1 km/h (1 Bft) S-SO 19,1 °C 27,9 °C
22.07.2015 11:00 24,2 °C 28,2 °C 65 % 58 % 1013,1 hPa 0,0 l/m² 3,3 km/h (1 Bft) O 19,2 °C 28,1 °C
22.07.2015 12:00 24,2 °C 29,1 °C 65 % 54 % 1012,8 hPa 0,0 l/m² 4,3 km/h (1 Bft) SO 18,9 °C 29,1 °C
22.07.2015 13:00 24,3 °C 30,4 °C 65 % 53 % 1012,3 hPa 0,0 l/m² 3,5 km/h (1 Bft) O-NO 19,8 °C 30,4 °C
22.07.2015 14:00 24,4 °C 31,6 °C 64 % 50 % 1011,8 hPa 0,0 l/m² 3,6 km/h (1 Bft) O-NO 19,9 °C 31,6 °C
22.07.2015 15:00 24,4 °C 31,8 °C 64 % 48 % 1011,4 hPa 0,0 l/m² 4,2 km/h (1 Bft) W-SW 19,5 °C 31,8 °C
22.07.2015 16:00 24,5 °C 31,0 °C 64 % 50 % 1010,7 hPa 0,0 l/m² 6,1 km/h (2 Bft) N-NW 19,3 °C 30,9 °C
22.07.2015 17:00 24,6 °C 30,8 °C 64 % 50 % 1010,4 hPa 0,0 l/m² 6,2 km/h (2 Bft) W 19,1 °C 30,7 °C
22.07.2015 18:00 24,7 °C 30,5 °C 66 % 50 % 1009,9 hPa 0,0 l/m² 4,4 km/h (1 Bft) N-NW 18,9 °C 30,5 °C
22.07.2015 19:00 25,0 °C 30,1 °C 66 % 53 % 1009,8 hPa 0,0 l/m² 12,5 km/h (2 Bft) NW 19,4 °C 29,6 °C
22.07.2015 20:00 25,0 °C 27,2 °C 66 % 62 % 1010,2 hPa 0,0 l/m² 14,5 km/h (3 Bft) W-NW 19,3 °C 26,2 °C
22.07.2015 21:00 25,0 °C 25,0 °C 67 % 66 % 1010,7 hPa 0,0 l/m² 10,3 km/h (2 Bft) NW 18,2 °C 24,1 °C
22.07.2015 22:00 25,4 °C 23,7 °C 66 % 67 % 1011,3 hPa 0,5 l/m² 6,1 km/h (2 Bft) NW 17,1 °C 23,3 °C
22.07.2015 23:00 25,2 °C 22,3 °C 66 % 74 % 1012,2 hPa 0,0 l/m² 10,9 km/h (2 Bft) O-SO 17,4 °C 20,9 °C
23.07.2015 00:00 25,0 °C 20,4 °C 66 % 84 % 1013,3 hPa 11,4 l/m² 4,6 km/h (1 Bft) NW 17,5 °C 20,2 °C
23.07.2015 01:00 25,0 °C 19,2 °C 66 % 92 % 1012,5 hPa 1,0 l/m² 2,0 km/h (1 Bft) NW 17,8 °C 19,2 °C
23.07.2015 02:00 24,9 °C 18,9 °C 66 % 93 % 1012,4 hPa 0,0 l/m² 4,6 km/h (1 Bft) W 17,7 °C 18,6 °C
23.07.2015 03:00 24,9 °C 18,3 °C 66 % 93 % 1012,8 hPa 0,0 l/m² 8,4 km/h (2 Bft) W 17,1 °C 17,3 °C
23.07.2015 04:00 24,8 °C 17,9 °C 66 % 93 % 1013,0 hPa 0,0 l/m² 5,2 km/h (1 Bft) W-NW 16,7 °C 17,7 °C
23.07.2015 05:00 24,8 °C 17,3 °C 66 % 93 % 1013,3 hPa 0,0 l/m² 4,9 km/h (1 Bft) W 16,1 °C 17,0 °C
23.07.2015 06:00 24,7 °C 16,5 °C 64 % 93 % 1013,9 hPa 0,0 l/m² 0,8 km/h (0 Bft) NW 15,4 °C 16,5 °C
23.07.2015 07:00 24,4 °C 17,6 °C 61 % 93 % 1014,3 hPa 0,0 l/m² 1,9 km/h (1 Bft) NW 16,5 °C 17,6 °C
23.07.2015 08:00 24,5 °C 19,3 °C 62 % 92 % 1014,7 hPa 0,0 l/m² 1,5 km/h (1 Bft) NW 17,9 °C 19,3 °C
23.07.2015 09:00 24,5 °C 20,8 °C 63 % 89 % 1014,8 hPa 0,0 l/m² 4,6 km/h (1 Bft) S-SO 18,9 °C 20,7 °C
23.07.2015 10:00 24,6 °C 22,4 °C 63 % 83 % 1014,8 hPa 0,0 l/m² 8,2 km/h (2 Bft) S 19,3 °C 21,7 °C
23.07.2015 11:00 24,5 °C 22,8 °C 63 % 69 % 1015,0 hPa 0,0 l/m² 12,8 km/h (3 Bft) S-SW 16,9 °C 21,2 °C
23.07.2015 12:00 24,5 °C 24,6 °C 63 % 59 % 1014,8 hPa 0,0 l/m² 17,3 km/h (3 Bft) SW 15,9 °C 22,6 °C
23.07.2015 13:00 24,5 °C 24,2 °C 63 % 56 % 1014,7 hPa 0,0 l/m² 16,6 km/h (3 Bft) SW 14,8 °C 22,3 °C
23.07.2015 14:00 24,5 °C 22,8 °C 63 % 64 % 1014,9 hPa 0,0 l/m² 8,5 km/h (2 Bft) S-SW 15,5 °C 22,0 °C
23.07.2015 15:00 24,5 °C 23,2 °C 63 % 59 % 1014,6 hPa 0,0 l/m² 11,5 km/h (2 Bft) SW 14,7 °C 21,8 °C
23.07.2015 16:00 24,5 °C 23,8 °C 63 % 57 % 1014,5 hPa 0,0 l/m² 12,4 km/h (2 Bft) S-SW 14,6 °C 22,4 °C
23.07.2015 17:00 24,5 °C 23,8 °C 62 % 57 % 1014,3 hPa 0,0 l/m² 6,8 km/h (2 Bft) W 14,7 °C 23,3 °C
23.07.2015 18:00 24,5 °C 23,4 °C 62 % 57 % 1014,1 hPa 0,0 l/m² 1,8 km/h (1 Bft) N-NW 14,4 °C 23,4 °C
23.07.2015 19:00 24,5 °C 22,7 °C 60 % 57 % 1014,0 hPa 0,0 l/m² 3,8 km/h (1 Bft) N-NW 13,8 °C 22,7 °C
23.07.2015 20:00 24,6 °C 21,8 °C 58 % 58 % 1014,4 hPa 0,0 l/m² 3,7 km/h (1 Bft) N-NW 13,1 °C 21,8 °C
23.07.2015 21:00 24,4 °C 20,7 °C 57 % 60 % 1015,0 hPa 0,0 l/m² 3,9 km/h (1 Bft) NW 12,6 °C 20,6 °C
23.07.2015 22:00 24,4 °C 19,5 °C 58 % 63 % 1015,6 hPa 0,0 l/m² 3,5 km/h (1 Bft) N-NW 12,2 °C 19,4 °C
23.07.2015 23:00 24,4 °C 18,6 °C 59 % 68 % 1015,9 hPa 0,0 l/m² 1,6 km/h (1 Bft) NO 12,6 °C 18,6 °C
24.07.2015 00:00 24,4 °C 18,1 °C 60 % 72 % 1015,9 hPa 0,0 l/m² 1,1 km/h (1 Bft) N-NO 12,9 °C 18,1 °C
24.07.2015 01:00 24,3 °C 17,6 °C 60 % 76 % 1015,8 hPa 0,0 l/m² 1,5 km/h (1 Bft) W-NW 13,3 °C 17,6 °C
24.07.2015 02:00 24,3 °C 16,9 °C 61 % 78 % 1015,5 hPa 0,0 l/m² 1,6 km/h (1 Bft) N 13,0 °C 16,9 °C
24.07.2015 03:00 24,3 °C 15,8 °C 61 % 80 % 1015,6 hPa 0,0 l/m² 0,5 km/h (0 Bft) NW 12,4 °C 15,8 °C
24.07.2015 04:00 24,2 °C 15,5 °C 60 % 82 % 1015,6 hPa 0,0 l/m² 0,2 km/h (0 Bft) NW 12,4 °C 15,5 °C
24.07.2015 05:00 24,1 °C 15,2 °C 60 % 84 % 1015,5 hPa 0,0 l/m² 0,5 km/h (0 Bft) NW 12,4 °C 15,2 °C
24.07.2015 06:00 24,1 °C 15,0 °C 60 % 85 % 1015,5 hPa 0,0 l/m² 0,3 km/h (0 Bft) NW 12,5 °C 15,0 °C
24.07.2015 07:00 24,0 °C 16,4 °C 59 % 86 % 1015,4 hPa 0,0 l/m² 0,9 km/h (0 Bft) NW 14,0 °C 16,4 °C
24.07.2015 08:00 24,0 °C 19,3 °C 60 % 74 % 1015,2 hPa 0,0 l/m² 10,3 km/h (2 Bft) O-NO 14,5 °C 17,8 °C
24.07.2015 09:00 24,1 °C 20,6 °C 60 % 64 % 1015,0 hPa 0,0 l/m² 11,5 km/h (2 Bft) NO 13,5 °C 19,0 °C
24.07.2015 10:00 24,1 °C 22,8 °C 59 % 59 % 1014,4 hPa 0,0 l/m² 12,1 km/h (2 Bft) O-NO 14,3 °C 21,3 °C
24.07.2015 11:00 24,2 °C 23,7 °C 56 % 57 % 1013,8 hPa 0,0 l/m² 12,2 km/h (2 Bft) NO 14,6 °C 22,3 °C
24.07.2015 12:00 24,3 °C 25,5 °C 57 % 56 % 1013,1 hPa 0,0 l/m² 12,2 km/h (2 Bft) O-NO 16,0 °C 24,4 °C
24.07.2015 13:00 24,4 °C 26,6 °C 58 % 53 % 1012,4 hPa 0,0 l/m² 11,5 km/h (2 Bft) O-NO 16,3 °C 25,8 °C
24.07.2015 14:00 24,4 °C 27,7 °C 58 % 51 % 1011,8 hPa 0,0 l/m² 13,2 km/h (3 Bft) O-NO 16,7 °C 26,9 °C
24.07.2015 15:00 24,5 °C 28,6 °C 59 % 48 % 1010,8 hPa 0,0 l/m² 11,7 km/h (2 Bft) NO 16,5 °C 28,0 °C
24.07.2015 16:00 24,6 °C 28,9 °C 59 % 47 % 1009,9 hPa 0,0 l/m² 12,6 km/h (2 Bft) O-NO 16,4 °C 28,3 °C
24.07.2015 17:00 24,5 °C 27,8 °C 59 % 51 % 1009,3 hPa 0,0 l/m² 12,0 km/h (2 Bft) O-NO 16,6 °C 27,0 °C
24.07.2015 18:00 24,5 °C 26,5 °C 60 % 55 % 1008,5 hPa 0,0 l/m² 8,8 km/h (2 Bft) NO 16,7 °C 26,1 °C
24.07.2015 19:00 24,5 °C 25,9 °C 60 % 57 % 1007,6 hPa 0,0 l/m² 10,0 km/h (2 Bft) NO 16,7 °C 25,2 °C
24.07.2015 20:00 24,7 °C 24,6 °C 60 % 61 % 1007,1 hPa 0,0 l/m² 7,4 km/h (2 Bft) NO 16,4 °C 24,2 °C
24.07.2015 21:00 25,0 °C 22,8 °C 59 % 66 % 1006,9 hPa 0,0 l/m² 5,1 km/h (1 Bft) O-NO 16,0 °C 22,8 °C
24.07.2015 22:00 25,1 °C 20,9 °C 59 % 71 % 1006,6 hPa 0,0 l/m² 4,9 km/h (1 Bft) O-NO 15,5 °C 20,9 °C
24.07.2015 23:00 25,0 °C 20,2 °C 60 % 74 % 1006,1 hPa 0,0 l/m² 6,6 km/h (2 Bft) O-NO 15,5 °C 19,9 °C
25.07.2015 00:00 24,8 °C 20,1 °C 60 % 75 % 1005,2 hPa 0,0 l/m² 7,9 km/h (2 Bft) O-NO 15,5 °C 19,4 °C
25.07.2015 01:00 24,7 °C 20,2 °C 60 % 74 % 1003,6 hPa 0,0 l/m² 8,1 km/h (2 Bft) O-NO 15,4 °C 19,4 °C
25.07.2015 02:00 24,6 °C 20,1 °C 60 % 75 % 1002,7 hPa 0,5 l/m² 4,1 km/h (1 Bft) O-NO 15,5 °C 20,0 °C
25.07.2015 03:00 24,6 °C 19,3 °C 60 % 82 % 1002,5 hPa 0,0 l/m² 5,4 km/h (1 Bft) S-SW 16,1 °C 18,7 °C
25.07.2015 04:00 24,5 °C 19,3 °C 60 % 84 % 1002,0 hPa 0,0 l/m² 5,5 km/h (2 Bft) O-NO 16,4 °C 18,8 °C
25.07.2015 05:00 24,5 °C 18,9 °C 61 % 85 % 1001,6 hPa 0,0 l/m² 5,3 km/h (1 Bft) S-SO 16,3 °C 18,5 °C
25.07.2015 06:00 24,4 °C 19,3 °C 61 % 86 % 1002,2 hPa 0,5 l/m² 9,5 km/h (2 Bft) SO 16,9 °C 18,1 °C
25.07.2015 07:00 24,3 °C 19,9 °C 61 % 86 % 1001,7 hPa 0,0 l/m² 7,5 km/h (2 Bft) SO 17,4 °C 19,0 °C
25.07.2015 08:00 24,2 °C 21,7 °C 62 % 80 % 1001,5 hPa 0,0 l/m² 13,0 km/h (3 Bft) S-SW 18,2 °C 19,8 °C
25.07.2015 09:00 24,0 °C 22,9 °C 61 % 73 % 1002,0 hPa 0,0 l/m² 22,4 km/h (4 Bft) S-SW 17,8 °C 19,7 °C
25.07.2015 10:00 24,1 °C 24,8 °C 61 % 66 % 1002,1 hPa 0,0 l/m² 22,4 km/h (4 Bft) S-SW 17,8 °C 22,1 °C
25.07.2015 11:00 24,4 °C 25,5 °C 60 % 59 % 1002,0 hPa 0,0 l/m² 24,0 km/h (4 Bft) SW 16,8 °C 23,0 °C
25.07.2015 12:00 24,6 °C 26,0 °C 58 % 54 % 1001,7 hPa 0,0 l/m² 25,5 km/h (4 Bft) S-SW 15,9 °C 23,5 °C
25.07.2015 13:00 24,8 °C 27,0 °C 56 % 45 % 1001,8 hPa 0,0 l/m² 31,0 km/h (5 Bft) S-SW 14,0 °C 24,5 °C
25.07.2015 14:00 24,9 °C 26,6 °C 56 % 42 % 1002,2 hPa 0,0 l/m² 31,9 km/h (5 Bft) S-SW 12,6 °C 23,9 °C
25.07.2015 15:00 24,9 °C 25,4 °C 57 % 45 % 1002,8 hPa 0,0 l/m² 29,4 km/h (5 Bft) SW 12,4 °C 22,4 °C
25.07.2015 16:00 24,9 °C 23,5 °C 57 % 49 % 1003,6 hPa 0,0 l/m² 32,5 km/h (5 Bft) SW 12,2 °C 19,5 °C
25.07.2015 17:00 25,0 °C 21,4 °C 58 % 58 % 1004,2 hPa 0,0 l/m² 28,9 km/h (5 Bft) S-SW 12,9 °C 16,9 °C
25.07.2015 18:00 25,1 °C 21,2 °C 58 % 56 % 1004,7 hPa 0,0 l/m² 28,1 km/h (5 Bft) S-SW 12,1 °C 16,7 °C
25.07.2015 19:00 25,2 °C 19,9 °C 57 % 57 % 1005,6 hPa 0,0 l/m² 31,5 km/h (5 Bft) SW 11,0 °C 14,5 °C
25.07.2015 20:00 25,3 °C 18,5 °C 56 % 59 % 1006,3 hPa 0,0 l/m² 27,0 km/h (5 Bft) S-SW 10,3 °C 13,1 °C
25.07.2015 21:00 25,5 °C 17,0 °C 56 % 62 % 1007,0 hPa 0,0 l/m² 28,9 km/h (5 Bft) S-SW 9,8 °C 10,8 °C
25.07.2015 22:00 25,2 °C 16,3 °C 56 % 66 % 1007,5 hPa 0,0 l/m² 27,3 km/h (5 Bft) SW 9,9 °C 10,1 °C
25.07.2015 23:00 24,9 °C 16,2 °C 56 % 66 % 1008,3 hPa 0,0 l/m² 29,1 km/h (5 Bft) S-SW 9,8 °C 9,6 °C
26.07.2015 00:00 24,7 °C 15,9 °C 57 % 66 % 1009,1 hPa 0,0 l/m² 30,0 km/h (5 Bft) SW 9,6 °C 9,0 °C
26.07.2015 01:00 24,6 °C 15,5 °C 57 % 68 % 1009,9 hPa 0,0 l/m² 32,4 km/h (5 Bft) W-SW 9,5 °C 8,1 °C
26.07.2015 02:00 24,5 °C 15,0 °C 57 % 70 % 1010,7 hPa 0,0 l/m² 25,5 km/h (4 Bft) W-SW 9,6 °C 8,6 °C
26.07.2015 03:00 24,4 °C 14,8 °C 57 % 69 % 1011,2 hPa 0,0 l/m² 27,0 km/h (4 Bft) W-SW 9,2 °C 8,0 °C
26.07.2015 04:00 24,3 °C 14,4 °C 58 % 73 % 1011,9 hPa 0,0 l/m² 23,0 km/h (4 Bft) SW 9,5 °C 8,4 °C
26.07.2015 05:00 24,3 °C 14,0 °C 58 % 75 % 1012,6 hPa 0,0 l/m² 20,0 km/h (4 Bft) SW 9,6 °C 8,6 °C
26.07.2015 06:00 24,3 °C 13,7 °C 58 % 77 % 1013,2 hPa 0,0 l/m² 17,5 km/h (3 Bft) SW 9,8 °C 9,0 °C
26.07.2015 07:00 24,2 °C 14,5 °C 58 % 74 % 1013,8 hPa 0,0 l/m² 19,3 km/h (3 Bft) SW 9,9 °C 9,5 °C
26.07.2015 08:00 24,1 °C 15,8 °C 58 % 67 % 1014,2 hPa 0,0 l/m² 23,1 km/h (4 Bft) SW 9,8 °C 10,3 °C
26.07.2015 09:00 24,1 °C 16,4 °C 56 % 61 % 1014,4 hPa 0,0 l/m² 22,8 km/h (4 Bft) W-SW 8,8 °C 11,1 °C
26.07.2015 10:00 24,1 °C 17,6 °C 55 % 57 % 1014,3 hPa 0,0 l/m² 23,0 km/h (4 Bft) SW 8,9 °C 12,6 °C
26.07.2015 11:00 24,3 °C 18,8 °C 54 % 52 % 1014,1 hPa 0,0 l/m² 20,1 km/h (4 Bft) SW 8,7 °C 14,8 °C
26.07.2015 12:00 24,1 °C 19,6 °C 46 % 48 % 1013,6 hPa 0,0 l/m² 20,8 km/h (4 Bft) SW 8,3 °C 15,7 °C
26.07.2015 13:00 23,8 °C 20,4 °C 42 % 44 % 1013,3 hPa 0,0 l/m² 18,5 km/h (3 Bft) S-SW 7,8 °C 17,1 °C
26.07.2015 14:00 23,6 °C 20,7 °C 41 % 44 % 1012,7 hPa 0,0 l/m² 15,2 km/h (3 Bft) S 7,9 °C 18,2 °C
26.07.2015 15:00 23,7 °C 22,0 °C 42 % 41 % 1011,8 hPa 0,0 l/m² 11,8 km/h (2 Bft) SW 8,0 °C 20,4 °C
26.07.2015 16:00 23,8 °C 22,8 °C 40 % 38 % 1010,8 hPa 0,0 l/m² 11,6 km/h (2 Bft) SW 7,8 °C 21,3 °C
26.07.2015 17:00 23,7 °C 24,1 °C 41 % 36 % 1010,1 hPa 0,0 l/m² 7,4 km/h (2 Bft) S-SW 8,2 °C 23,6 °C
26.07.2015 18:00 23,6 °C 23,2 °C 41 % 37 % 1009,6 hPa 0,0 l/m² 6,5 km/h (2 Bft) SW 7,6 °C 22,9 °C
26.07.2015 19:00 23,7 °C 22,1 °C 43 % 39 % 1008,7 hPa 0,0 l/m² 1,0 km/h (0 Bft) W-SW 7,4 °C 22,1 °C
26.07.2015 20:00 23,8 °C 19,4 °C 43 % 47 % 1008,1 hPa 0,0 l/m² 2,2 km/h (1 Bft) NO 7,6 °C 19,4 °C
26.07.2015 21:00 23,8 °C 16,6 °C 45 % 55 % 1007,8 hPa 0,0 l/m² 2,2 km/h (1 Bft) NO 7,6 °C 16,6 °C
26.07.2015 22:00 24,0 °C 15,2 °C 46 % 65 % 1007,0 hPa 0,0 l/m² 5,0 km/h (1 Bft) NO 8,7 °C 15,2 °C
26.07.2015 23:00 23,9 °C 15,2 °C 47 % 64 % 1006,6 hPa 0,0 l/m² 1,9 km/h (1 Bft) O-NO 8,6 °C 15,2 °C
Min-Datum _ 20.07.15 20.07.15 26.07.15 26.07.15 25.07.15 - 26.07.15 - 26.07.15 26.07.15
_ Min-Zeit 07:02 05:00 18:00 17:28 05:00 - 23:18 - 19:50 01:28
Minimum _ 23,3 °C 12,9 °C 40 % 32 % 1001,0 hPa - 0,0 km/h (0 Bft) - 7,0 °C 5,5 °C
Max-Datum _ 25.07.15 22.07.15 21.07.15 23.07.15 24.07.15 23.07.15 26.07.15 - 21.07.15 22.07.15
_ Max-Zeit 21:20 15:04 07:02 07:00 00:22 00:14 01:28 - 09:26 15:04
Maximum _ 25,5 °C 32,4 °C 68 % 94 % 1016,1 hPa 11,4 l/m² 60,1 km/h
W-SW (7 Bft)
- 21,6 °C 32,4 °C
Durchschnitt _ 24,3 °C 21,7 °C 60 % 68 % 1011,2 hPa #18,6 l/m² 10,5 km/h (2 Bft) W-SW 15,1 °C 20,5 °C
© 2009 Mathias Hoßbach